createdAt,value
2022-10-02T00:02:12.127Z,100.00
2022-10-02T00:04:51.679Z,100.00
2022-10-02T00:07:20.580Z,100.00
2022-10-02T00:09:54.779Z,100.00
2022-10-02T00:12:25.030Z,100.00
2022-10-02T00:14:56.791Z,100.00
2022-10-02T00:17:29.585Z,100.00
2022-10-02T00:19:56.668Z,100.00
2022-10-02T00:22:34.654Z,100.00
2022-10-02T00:25:50.447Z,100.00
2022-10-02T00:28:27.058Z,100.00
2022-10-02T00:31:13.979Z,100.00
2022-10-02T00:33:52.351Z,100.00
2022-10-02T00:36:18.897Z,100.00
2022-10-02T00:38:57.450Z,100.00
2022-10-02T00:41:49.137Z,100.00
2022-10-02T00:44:35.013Z,100.00
2022-10-02T00:47:12.741Z,100.00
2022-10-02T00:50:00.111Z,100.00
2022-10-02T00:52:58.343Z,100.00
2022-10-02T00:55:30.980Z,100.00
2022-10-02T00:58:02.556Z,100.00
2022-10-02T01:00:29.672Z,100.00
2022-10-02T01:03:20.607Z,100.00
2022-10-02T01:05:47.577Z,100.00
2022-10-02T01:08:14.648Z,100.00
2022-10-02T01:10:41.900Z,100.00
2022-10-02T01:13:08.884Z,100.00
2022-10-02T01:15:44.998Z,100.00
2022-10-02T01:18:15.117Z,100.00
2022-10-02T01:20:45.404Z,100.00
2022-10-02T01:23:30.583Z,100.00
2022-10-02T01:25:59.165Z,100.00
2022-10-02T01:28:29.162Z,100.00
2022-10-02T01:31:07.757Z,100.00
2022-10-02T01:33:36.511Z,100.00
2022-10-02T01:36:03.380Z,100.00
2022-10-02T01:38:30.459Z,100.00
2022-10-02T01:40:57.388Z,100.00
2022-10-02T01:43:34.285Z,100.00
2022-10-02T01:46:35.489Z,100.00
2022-10-02T01:49:24.022Z,100.00
2022-10-02T01:52:02.539Z,100.00
2022-10-02T01:54:58.264Z,100.00
2022-10-02T01:57:52.133Z,100.00
2022-10-02T02:00:24.661Z,100.00
2022-10-02T02:02:57.034Z,100.00
2022-10-02T02:05:32.555Z,100.00
2022-10-02T02:08:15.306Z,100.00
2022-10-02T02:10:47.937Z,100.00
2022-10-02T02:13:26.680Z,100.00
2022-10-02T02:16:02.113Z,100.00
2022-10-02T02:18:39.029Z,100.00
2022-10-02T02:21:14.823Z,100.00
2022-10-02T02:23:42.368Z,100.00
2022-10-02T02:26:12.605Z,100.00
2022-10-02T02:28:46.659Z,100.00
2022-10-02T02:31:18.087Z,100.00
2022-10-02T02:34:06.663Z,100.00
2022-10-02T02:36:37.954Z,100.00
2022-10-02T02:39:10.349Z,100.00
2022-10-02T02:41:46.204Z,100.00
2022-10-02T02:44:18.173Z,100.00
2022-10-02T02:47:04.862Z,100.00
2022-10-02T02:49:44.823Z,100.00
2022-10-02T02:52:29.717Z,100.00
2022-10-02T02:55:08.027Z,100.00
2022-10-02T02:57:45.980Z,100.00
2022-10-02T03:00:15.714Z,100.00
2022-10-02T03:02:42.448Z,100.00
2022-10-02T03:05:17.716Z,100.00
2022-10-02T03:07:59.800Z,100.00
2022-10-02T03:10:46.217Z,100.00
2022-10-02T03:13:50.149Z,100.00
2022-10-02T03:16:54.038Z,100.00
2022-10-02T03:19:42.530Z,100.00
2022-10-02T03:22:36.409Z,100.00
2022-10-02T03:25:05.949Z,100.00
2022-10-02T03:27:52.690Z,100.00
2022-10-02T03:30:20.792Z,100.00
2022-10-02T03:32:53.797Z,100.00
2022-10-02T03:35:22.702Z,100.00
2022-10-02T03:37:53.019Z,100.00
2022-10-02T03:40:26.753Z,100.00
2022-10-02T03:42:58.237Z,100.00
2022-10-02T03:45:49.485Z,100.00
2022-10-02T03:48:12.845Z,100.00
2022-10-02T03:50:39.516Z,100.00
2022-10-02T03:53:18.858Z,100.00
2022-10-02T03:56:09.347Z,100.00
2022-10-02T03:58:41.227Z,100.00
2022-10-02T04:01:14.166Z,100.00
2022-10-02T04:03:53.430Z,100.00
2022-10-02T04:06:44.018Z,100.00
2022-10-02T04:09:22.568Z,100.00
2022-10-02T04:12:16.748Z,100.00
2022-10-02T04:14:55.661Z,100.00
2022-10-02T04:17:27.904Z,100.00
2022-10-02T04:20:03.892Z,100.00
2022-10-02T04:22:37.421Z,100.00
2022-10-02T04:25:12.794Z,100.00
2022-10-02T04:27:57.004Z,100.00
2022-10-02T04:30:23.902Z,100.00
2022-10-02T04:32:51.089Z,100.00
2022-10-02T04:36:01.021Z,100.00
2022-10-02T04:38:55.831Z,100.00
2022-10-02T04:41:32.979Z,100.00
2022-10-02T04:44:35.791Z,100.00
2022-10-02T04:47:05.422Z,100.00
2022-10-02T04:49:32.041Z,100.00
2022-10-02T04:52:07.646Z,100.00
2022-10-02T04:55:02.228Z,100.00
2022-10-02T04:57:38.058Z,100.00
2022-10-02T05:00:15.471Z,100.00
2022-10-02T05:03:11.355Z,100.00
2022-10-02T05:05:56.811Z,100.00
2022-10-02T05:08:40.088Z,100.00
2022-10-02T05:11:45.704Z,100.00
2022-10-02T05:14:23.232Z,100.00
2022-10-02T05:17:08.668Z,100.00
2022-10-02T05:19:47.800Z,100.00
2022-10-02T05:22:32.392Z,100.00
2022-10-02T05:25:17.284Z,100.00
2022-10-02T05:28:07.560Z,100.00
2022-10-02T05:31:13.276Z,100.00
2022-10-02T05:33:41.099Z,100.00
2022-10-02T05:36:21.705Z,100.00
2022-10-02T05:39:09.187Z,100.00
2022-10-02T05:41:47.864Z,100.00
2022-10-02T05:44:23.285Z,100.00
2022-10-02T05:47:05.723Z,100.00
2022-10-02T05:49:41.596Z,100.00
2022-10-02T05:52:13.764Z,100.00
2022-10-02T05:54:52.529Z,100.00
2022-10-02T05:57:31.892Z,100.00
2022-10-02T06:00:04.870Z,100.00
2022-10-02T06:02:43.581Z,100.00
2022-10-02T06:05:26.062Z,100.00
2022-10-02T06:07:58.667Z,100.00
2022-10-02T06:10:32.378Z,100.00
2022-10-02T06:13:07.198Z,100.00
2022-10-02T06:15:43.098Z,100.00
2022-10-02T06:18:13.238Z,100.00
2022-10-02T06:20:47.396Z,100.00
2022-10-02T06:23:24.640Z,100.00
2022-10-02T06:26:00.434Z,100.00
2022-10-02T06:28:39.160Z,100.00
2022-10-02T06:31:19.474Z,100.00
2022-10-02T06:33:46.351Z,100.00
2022-10-02T06:36:30.897Z,100.00
2022-10-02T06:39:22.792Z,100.00
2022-10-02T06:41:55.287Z,100.00
2022-10-02T06:44:59.322Z,100.00
2022-10-02T06:47:35.472Z,100.00
2022-10-02T06:50:28.242Z,100.00
2022-10-02T06:53:19.240Z,100.00
2022-10-02T06:56:05.435Z,100.00
2022-10-02T06:58:55.339Z,100.00
2022-10-02T07:01:40.368Z,100.00
2022-10-02T07:04:19.247Z,100.00
2022-10-02T07:07:10.619Z,100.00
2022-10-02T07:09:55.696Z,100.00
2022-10-02T07:12:47.855Z,100.00
2022-10-02T07:15:46.923Z,100.00
2022-10-02T07:18:34.770Z,100.00
2022-10-02T07:21:26.258Z,100.00
2022-10-02T07:24:11.223Z,100.00
2022-10-02T07:26:45.848Z,100.00
2022-10-02T07:29:54.515Z,100.00
2022-10-02T07:32:21.048Z,100.00
2022-10-02T07:35:06.157Z,100.00
2022-10-02T07:37:57.472Z,100.00
2022-10-02T07:40:47.851Z,100.00
2022-10-02T07:43:39.722Z,100.00
2022-10-02T07:46:24.628Z,100.00
2022-10-02T07:49:06.228Z,100.00
2022-10-02T07:51:47.609Z,100.00
2022-10-02T07:54:17.435Z,100.00
2022-10-02T07:56:47.414Z,100.00
2022-10-02T07:59:17.661Z,100.00
2022-10-02T08:01:47.777Z,100.00
2022-10-02T08:04:34.631Z,100.00
2022-10-02T08:07:05.438Z,100.00
2022-10-02T08:09:42.229Z,100.00
2022-10-02T08:12:34.080Z,100.00
2022-10-02T08:15:02.802Z,100.00
2022-10-02T08:17:33.032Z,100.00
2022-10-02T08:20:19.862Z,100.00
2022-10-02T08:22:51.943Z,100.00
2022-10-02T08:25:39.951Z,100.00
2022-10-02T08:28:19.737Z,100.00
2022-10-02T08:30:46.977Z,100.00
2022-10-02T08:33:22.345Z,100.00
2022-10-02T08:36:16.900Z,100.00
2022-10-02T08:38:54.594Z,100.00
2022-10-02T08:42:15.827Z,100.00
2022-10-02T08:45:24.326Z,100.00
2022-10-02T08:48:28.575Z,100.00
2022-10-02T08:51:20.830Z,100.00
2022-10-02T08:54:09.149Z,100.00
2022-10-02T08:56:58.644Z,100.00
2022-10-02T09:00:02.948Z,100.00
2022-10-02T09:02:38.648Z,100.00
2022-10-02T09:05:26.057Z,100.00
2022-10-02T09:07:56.773Z,100.00
2022-10-02T09:10:48.007Z,100.00
2022-10-02T09:13:29.834Z,100.00
2022-10-02T09:16:19.770Z,100.00
2022-10-02T09:19:21.522Z,100.00
2022-10-02T09:21:48.348Z,100.00
2022-10-02T09:24:48.562Z,100.00
2022-10-02T09:27:36.590Z,100.00
2022-10-02T09:30:23.433Z,100.00
2022-10-02T09:33:11.630Z,100.00
2022-10-02T09:36:08.236Z,100.00
2022-10-02T09:38:49.964Z,100.00
2022-10-02T09:41:37.901Z,100.00
2022-10-02T09:44:29.230Z,100.00
2022-10-02T09:46:55.809Z,100.00
2022-10-02T09:49:42.411Z,100.00
2022-10-02T09:52:41.943Z,100.00
2022-10-02T09:55:50.243Z,100.00
2022-10-02T09:58:47.695Z,100.00
2022-10-02T10:01:26.592Z,100.00
2022-10-02T10:04:33.840Z,100.00
2022-10-02T10:07:20.229Z,100.00
2022-10-02T10:10:11.465Z,100.00
2022-10-02T10:12:38.793Z,100.00
2022-10-02T10:15:43.070Z,100.00
2022-10-02T10:18:28.512Z,100.00
2022-10-02T10:21:04.188Z,100.00
2022-10-02T10:23:49.844Z,100.00
2022-10-02T10:26:22.282Z,100.00
2022-10-02T10:28:59.669Z,100.00
2022-10-02T10:31:48.513Z,100.00
2022-10-02T10:34:46.286Z,100.00
2022-10-02T10:37:50.996Z,100.00
2022-10-02T10:40:38.192Z,100.00
2022-10-02T10:43:08.639Z,100.00
2022-10-02T10:45:54.389Z,100.00
2022-10-02T10:48:35.006Z,100.00
2022-10-02T10:51:30.717Z,100.00
2022-10-02T10:54:22.862Z,100.00
2022-10-02T10:57:18.586Z,100.00
2022-10-02T11:00:04.451Z,100.00
2022-10-02T11:02:39.929Z,100.00
2022-10-02T11:05:28.088Z,100.00
2022-10-02T11:08:07.066Z,100.00
2022-10-02T11:10:42.511Z,100.00
2022-10-02T11:13:35.270Z,100.00
2022-10-02T11:16:16.710Z,100.00
2022-10-02T11:19:05.301Z,100.00
2022-10-02T11:21:51.844Z,100.00
2022-10-02T11:24:42.895Z,100.00
2022-10-02T11:27:27.279Z,100.00
2022-10-02T11:30:38.250Z,100.00
2022-10-02T11:33:27.137Z,100.00
2022-10-02T11:36:24.254Z,100.00
2022-10-02T11:39:15.482Z,100.00
2022-10-02T11:42:13.374Z,100.00
2022-10-02T11:44:51.488Z,100.00
2022-10-02T11:47:40.634Z,100.00
2022-10-02T11:50:23.544Z,100.00
2022-10-02T11:53:09.063Z,100.00
2022-10-02T11:56:01.171Z,100.00
2022-10-02T11:58:34.161Z,100.00
2022-10-02T12:01:22.628Z,98.51
2022-10-02T12:04:09.663Z,97.82
2022-10-02T12:07:15.132Z,97.72
2022-10-02T12:10:23.944Z,95.62
2022-10-02T12:13:16.041Z,91.53
2022-10-02T12:15:58.214Z,90.79
2022-10-02T12:18:43.868Z,90.69
2022-10-02T12:21:53.582Z,88.90
2022-10-02T12:25:21.096Z,87.01
2022-10-02T12:28:06.564Z,83.73
2022-10-02T12:31:01.365Z,82.57
2022-10-02T12:33:41.718Z,81.46
2022-10-02T12:36:34.879Z,79.29
2022-10-02T12:39:22.326Z,77.08
2022-10-02T12:41:54.679Z,72.88
2022-10-02T12:44:46.204Z,70.58
2022-10-02T12:47:35.636Z,72.06
2022-10-02T12:50:22.289Z,73.06
2022-10-02T12:53:10.677Z,69.68
2022-10-02T12:55:59.163Z,70.88
2022-10-02T12:58:46.302Z,67.83
2022-10-02T13:01:42.027Z,65.93
2022-10-02T13:04:45.741Z,63.44
2022-10-02T13:07:57.281Z,63.02
2022-10-02T13:10:37.604Z,60.76
2022-10-02T13:13:21.000Z,61.93
2022-10-02T13:15:47.624Z,60.57
2022-10-02T13:18:26.863Z,62.36
2022-10-02T13:21:04.280Z,62.95
2022-10-02T13:23:50.916Z,63.26
2022-10-02T13:26:53.382Z,62.15
2022-10-02T13:29:44.140Z,61.37
2022-10-02T13:32:32.299Z,61.34
2022-10-02T13:35:46.058Z,65.13
2022-10-02T13:38:43.779Z,66.34
2022-10-02T13:41:13.923Z,63.37
2022-10-02T13:43:58.492Z,65.07
2022-10-02T13:46:59.910Z,63.67
2022-10-02T13:49:57.020Z,61.16
2022-10-02T13:52:52.706Z,59.88
2022-10-02T13:55:25.944Z,58.41
2022-10-02T13:57:58.431Z,57.31
2022-10-02T14:00:51.121Z,54.56
2022-10-02T14:03:40.001Z,54.20
2022-10-02T14:06:45.325Z,53.98
2022-10-02T14:09:16.900Z,52.24
2022-10-02T14:11:58.389Z,53.25
2022-10-02T14:14:47.249Z,50.51
2022-10-02T14:17:57.559Z,50.11
2022-10-02T14:21:08.024Z,50.99
2022-10-02T14:24:05.766Z,50.85
2022-10-02T14:27:19.368Z,50.13
2022-10-02T14:30:03.967Z,52.13
2022-10-02T14:32:36.334Z,51.68
2022-10-02T14:35:24.954Z,55.58
2022-10-02T14:38:29.270Z,57.88
2022-10-02T14:40:58.074Z,61.00
2022-10-02T14:43:56.686Z,59.41
2022-10-02T14:46:53.761Z,57.60
2022-10-02T14:49:39.292Z,57.74
2022-10-02T14:52:18.280Z,58.10
2022-10-02T14:55:15.718Z,55.27
2022-10-02T14:58:06.963Z,56.44
2022-10-02T15:01:06.967Z,54.36
2022-10-02T15:04:01.516Z,56.47
2022-10-02T15:06:47.118Z,58.11
2022-10-02T15:09:24.585Z,55.80
2022-10-02T15:12:09.923Z,54.87
2022-10-02T15:14:55.181Z,54.71
2022-10-02T15:17:55.584Z,58.54
2022-10-02T15:20:40.631Z,57.74
2022-10-02T15:23:15.084Z,57.82
2022-10-02T15:25:50.678Z,59.83
2022-10-02T15:28:37.194Z,60.05
2022-10-02T15:31:25.979Z,61.09
2022-10-02T15:34:14.618Z,62.67
2022-10-02T15:37:00.537Z,65.14
2022-10-02T15:39:49.679Z,66.95
2022-10-02T15:42:40.815Z,67.71
2022-10-02T15:45:27.761Z,67.14
2022-10-02T15:48:12.894Z,67.52
2022-10-02T15:50:47.386Z,69.45
2022-10-02T15:53:45.152Z,75.27
2022-10-02T15:56:14.761Z,76.78
2022-10-02T15:58:41.303Z,77.56
2022-10-02T16:01:14.058Z,82.94
2022-10-02T16:03:50.927Z,92.99
2022-10-02T16:06:39.219Z,97.44
2022-10-02T16:09:24.470Z,100.00
2022-10-02T16:12:15.918Z,100.00
2022-10-02T16:15:00.638Z,100.00
2022-10-02T16:17:39.558Z,100.00
2022-10-02T16:20:18.430Z,100.00
2022-10-02T16:22:51.354Z,100.00
2022-10-02T16:25:45.257Z,100.00
2022-10-02T16:28:32.555Z,100.00
2022-10-02T16:31:05.257Z,100.00
2022-10-02T16:33:57.839Z,100.00
2022-10-02T16:36:34.371Z,100.00
2022-10-02T16:39:21.146Z,100.00
2022-10-02T16:42:05.179Z,100.00
2022-10-02T16:44:54.735Z,100.00
2022-10-02T16:47:45.621Z,100.00
2022-10-02T16:50:12.150Z,100.00
2022-10-02T16:52:45.792Z,100.00
2022-10-02T16:55:25.438Z,100.00
2022-10-02T16:58:02.695Z,100.00
2022-10-02T17:00:35.200Z,100.00
2022-10-02T17:03:19.225Z,100.00
2022-10-02T17:05:54.107Z,100.00
2022-10-02T17:08:42.139Z,100.00
2022-10-02T17:11:28.057Z,100.00
2022-10-02T17:14:05.385Z,100.00
2022-10-02T17:16:53.215Z,100.00
2022-10-02T17:19:45.882Z,100.00
2022-10-02T17:22:28.796Z,100.00
2022-10-02T17:25:27.329Z,100.00
2022-10-02T17:27:56.878Z,100.00
2022-10-02T17:30:27.413Z,100.00
2022-10-02T17:32:54.200Z,100.00
2022-10-02T17:35:42.951Z,100.00
2022-10-02T17:38:43.307Z,100.00
2022-10-02T17:41:24.692Z,100.00
2022-10-02T17:44:12.764Z,100.00
2022-10-02T17:46:58.788Z,100.00
2022-10-02T17:49:59.189Z,100.00
2022-10-02T17:53:21.420Z,100.00
2022-10-02T17:56:28.155Z,100.00
2022-10-02T17:59:03.843Z,100.00
2022-10-02T18:02:17.725Z,100.00
2022-10-02T18:05:15.406Z,100.00
2022-10-02T18:07:52.531Z,100.00
2022-10-02T18:10:32.362Z,100.00
2022-10-02T18:13:05.598Z,100.00
2022-10-02T18:16:18.752Z,100.00
2022-10-02T18:19:16.318Z,100.00
2022-10-02T18:22:16.847Z,100.00
2022-10-02T18:24:57.443Z,100.00
2022-10-02T18:27:42.400Z,100.00
2022-10-02T18:30:20.421Z,100.00
2022-10-02T18:33:09.367Z,100.00
2022-10-02T18:35:50.361Z,100.00
2022-10-02T18:38:16.958Z,100.00
2022-10-02T18:41:21.096Z,100.00
2022-10-02T18:44:02.557Z,100.00
2022-10-02T18:46:45.931Z,100.00
2022-10-02T18:49:21.253Z,100.00
2022-10-02T18:52:16.742Z,100.00
2022-10-02T18:54:43.698Z,100.00
2022-10-02T18:57:29.155Z,100.00
2022-10-02T19:00:24.724Z,100.00
2022-10-02T19:03:10.177Z,100.00
2022-10-02T19:05:41.974Z,100.00
2022-10-02T19:08:46.085Z,100.00
2022-10-02T19:11:19.624Z,100.00
2022-10-02T19:13:49.029Z,100.00
2022-10-02T19:16:24.723Z,100.00
2022-10-02T19:19:19.422Z,100.00
2022-10-02T19:21:46.583Z,100.00
2022-10-02T19:24:18.739Z,100.00
2022-10-02T19:26:52.169Z,100.00
2022-10-02T19:29:27.629Z,100.00
2022-10-02T19:31:57.983Z,100.00
2022-10-02T19:34:31.069Z,100.00
2022-10-02T19:37:04.698Z,100.00
2022-10-02T19:39:31.306Z,100.00
2022-10-02T19:42:03.210Z,100.00
2022-10-02T19:44:40.462Z,100.00
2022-10-02T19:47:31.495Z,100.00
2022-10-02T19:50:03.390Z,100.00
2022-10-02T19:52:53.527Z,100.00
2022-10-02T19:55:22.444Z,100.00
2022-10-02T19:57:54.168Z,100.00
2022-10-02T20:00:21.109Z,100.00
2022-10-02T20:02:52.008Z,100.00
2022-10-02T20:05:22.721Z,100.00
2022-10-02T20:07:52.857Z,100.00
2022-10-02T20:10:31.099Z,100.00
2022-10-02T20:13:28.185Z,100.00
2022-10-02T20:16:21.774Z,100.00
2022-10-02T20:18:50.783Z,100.00
2022-10-02T20:21:26.265Z,100.00
2022-10-02T20:23:57.515Z,100.00
2022-10-02T20:26:29.734Z,100.00
2022-10-02T20:29:05.773Z,100.00
2022-10-02T20:31:56.605Z,100.00
2022-10-02T20:34:33.596Z,100.00
2022-10-02T20:37:08.354Z,100.00
2022-10-02T20:39:49.669Z,100.00
2022-10-02T20:42:33.720Z,100.00
2022-10-02T20:45:00.382Z,100.00
2022-10-02T20:47:45.643Z,100.00
2022-10-02T20:50:31.521Z,100.00
2022-10-02T20:53:16.239Z,100.00
2022-10-02T20:56:04.722Z,100.00
2022-10-02T20:59:15.263Z,100.00
2022-10-02T21:02:10.654Z,100.00
2022-10-02T21:04:49.353Z,100.00
2022-10-02T21:07:35.297Z,100.00
2022-10-02T21:10:51.799Z,100.00
2022-10-02T21:13:33.167Z,100.00
2022-10-02T21:16:10.797Z,100.00
2022-10-02T21:19:05.013Z,100.00
2022-10-02T21:21:53.963Z,100.00
2022-10-02T21:24:26.719Z,100.00
2022-10-02T21:27:02.412Z,100.00
2022-10-02T21:29:54.762Z,100.00
2022-10-02T21:32:40.002Z,100.00
2022-10-02T21:35:30.469Z,100.00
2022-10-02T21:38:13.087Z,100.00
2022-10-02T21:40:48.632Z,100.00
2022-10-02T21:43:33.719Z,100.00
2022-10-02T21:46:36.010Z,100.00
2022-10-02T21:49:20.608Z,100.00
2022-10-02T21:52:05.782Z,100.00
2022-10-02T21:54:38.588Z,100.00
2022-10-02T21:57:40.234Z,100.00
2022-10-02T22:00:25.447Z,100.00
2022-10-02T22:03:27.780Z,100.00
2022-10-02T22:06:41.878Z,100.00
2022-10-02T22:09:11.374Z,100.00
2022-10-02T22:11:44.137Z,100.00
2022-10-02T22:14:27.545Z,100.00
2022-10-02T22:17:04.589Z,100.00
2022-10-02T22:19:34.211Z,100.00
2022-10-02T22:22:26.018Z,100.00
2022-10-02T22:25:17.693Z,100.00
2022-10-02T22:28:13.524Z,100.00
2022-10-02T22:30:55.311Z,100.00
2022-10-02T22:33:24.679Z,100.00
2022-10-02T22:36:21.123Z,100.00
2022-10-02T22:38:53.228Z,100.00
2022-10-02T22:41:34.309Z,100.00
2022-10-02T22:44:12.384Z,100.00
2022-10-02T22:46:48.196Z,100.00
2022-10-02T22:49:33.290Z,100.00
2022-10-02T22:52:18.315Z,100.00
2022-10-02T22:55:04.819Z,100.00
2022-10-02T22:57:47.369Z,100.00
2022-10-02T23:00:18.793Z,100.00
2022-10-02T23:02:50.414Z,100.00
2022-10-02T23:05:23.574Z,100.00
2022-10-02T23:07:59.722Z,100.00
2022-10-02T23:10:38.217Z,100.00
2022-10-02T23:13:23.408Z,100.00
2022-10-02T23:16:08.806Z,100.00
2022-10-02T23:18:49.425Z,100.00
2022-10-02T23:21:27.790Z,100.00
2022-10-02T23:24:06.302Z,100.00
2022-10-02T23:26:43.102Z,100.00
2022-10-02T23:29:25.848Z,100.00
2022-10-02T23:32:21.831Z,100.00
2022-10-02T23:35:00.286Z,100.00
2022-10-02T23:37:26.897Z,100.00
2022-10-02T23:40:05.849Z,100.00
2022-10-02T23:42:39.997Z,100.00
2022-10-02T23:45:30.517Z,100.00
2022-10-02T23:48:00.683Z,100.00
2022-10-02T23:50:37.207Z,100.00
2022-10-02T23:53:28.393Z,100.00
2022-10-02T23:56:24.183Z,100.00
2022-10-02T23:59:06.072Z,100.00
